Triangle Lake, Oregon
Current Conditions -  °F | °C
As of 10:54 PM on Wednesday 22 Oct 2014 (Local Time) from KEUG Reporting Station
Overcast Overcast  
Wind Chill: 57°   Ceiling: 2500
Heat Index: 57°   Visibility: 10mi
Dew Point: 54°   Wind: 8mph
Humidity: 89%   Direction: 190°S
Pressure: 29.8"   Gusts: NA
Location:  44.1962°N, 123.553°W
Report Text: KEUG 230554Z 19007KT 10SM OVC025 14/12 A2980 RMK AO2 SLP091 60081 T01390122 10144 20133 51006
Loading
Personal Weather Stations






























Interactive Weather Map
Tropical Storm Tracking
New forecast layout! Learn more

10-Day Weather Forecast

Advertisements
Track Severe Weather on mobile